Mediapolis, Iowa
Current Conditions -  °F | °C
As of 5:53 PM on Saturday 25 Oct 2014 (Local Time) from KBRL Reporting Station
Clear Clear  
Wind Chill: 68°   Ceiling: Unl
Heat Index: 68°   Visibility: 10mi
Dew Point: 39°   Wind: 6mph
Humidity: 35%   Direction: 330°NNW
Pressure: 30.02"   Gusts: NA
Location:  41.01°N, 91.16°W
Report Text: KBRL 252253Z AUTO 33005KT 10SM CLR 20/04 A3002 RMK AO2 SLP164 T02000039
Loading
Personal Weather Stations






























Interactive Weather Map
Tropical Storm Tracking
New forecast layout! Learn more

10-Day Weather Forecast

Advertisements
Track Severe Weather on mobile